Time;durP1;ratioP1;P1;durP2;ratioP2;P2;SDS_P1;SDS_P2;PMS_P1;PMS_P2;Temp;Humidity;BMP_temperature;BMP_pressure;BME280_temperature;BME280_humidity;BME280_pressure;Samples;Min_cycle;Max_cycle;Signal;HPM_P1;HPM_P2
2024/03/02 00:02:30;;;;;;;10.65;5.90;;;;;;;6.59;66.57;99214.47;10299918;28;20505;-58
2024/03/02 00:07:31;;;;;;;10.98;5.18;;;;;;;6.52;66.52;99214.34;10306854;28;20053;-57
2024/03/02 00:12:33;;;;;;;11.05;5.80;;;;;;;6.51;65.87;99212.69;10294528;28;20524;-57
2024/03/02 00:17:34;;;;;;;9.15;5.35;;;;;;;6.38;66.67;99196.41;10299787;28;20057;-58
2024/03/02 00:22:37;;;;;;;8.13;5.95;;;;;;;6.42;66.87;99195.91;10297138;28;20113;-57
2024/03/02 00:27:39;;;;;;;11.93;6.50;;;;;;;6.32;66.61;99198.00;10301127;28;20055;-57
2024/03/02 00:32:43;;;;;;;12.98;6.40;;;;;;;6.15;66.93;99197.25;10301441;28;20051;-59
2024/03/02 00:37:44;;;;;;;11.48;5.93;;;;;;;6.23;66.66;99191.03;10299876;28;20125;-58
2024/03/02 00:42:45;;;;;;;10.15;5.72;;;;;;;6.08;67.71;99186.47;10279102;28;20062;-58
2024/03/02 00:47:47;;;;;;;9.38;5.75;;;;;;;6.12;67.60;99187.78;10301453;28;20465;-58
2024/03/02 00:52:48;;;;;;;8.98;5.20;;;;;;;6.05;67.08;99197.47;10302338;28;20046;-58
2024/03/02 00:57:50;;;;;;;9.02;4.53;;;;;;;5.95;67.75;99187.00;10283963;28;20050;-58
2024/03/02 01:02:52;;;;;;;11.90;6.88;;;;;;;5.86;68.17;99188.03;10298509;28;20042;-58
2024/03/02 01:07:53;;;;;;;8.77;5.15;;;;;;;5.82;68.12;99201.88;10297895;28;20050;-56
2024/03/02 01:12:55;;;;;;;16.17;5.35;;;;;;;5.81;68.62;99200.25;10302002;28;20054;-56
2024/03/02 01:17:57;;;;;;;8.55;4.78;;;;;;;5.89;67.41;99197.53;10295950;28;20096;-56
2024/03/02 01:22:58;;;;;;;10.23;6.20;;;;;;;5.88;68.08;99207.34;10297687;28;20046;-57
2024/03/02 01:28:00;;;;;;;10.65;5.03;;;;;;;5.69;68.72;99216.59;10300278;28;20364;-57
2024/03/02 01:33:02;;;;;;;13.02;5.82;;;;;;;5.79;68.35;99220.91;10293250;28;20073;-57
2024/03/02 01:38:05;;;;;;;10.80;5.78;;;;;;;5.89;68.54;99190.34;10300036;28;20043;-57
2024/03/02 01:43:07;;;;;;;10.45;5.32;;;;;;;5.82;68.43;99191.22;10297386;28;20062;-57
2024/03/02 01:48:09;;;;;;;10.82;5.45;;;;;;;5.61;68.81;99192.66;10295989;28;20034;-58
2024/03/02 01:53:10;;;;;;;13.38;5.63;;;;;;;5.71;68.44;99189.78;10302406;28;20042;-58
2024/03/02 01:58:12;;;;;;;10.85;5.78;;;;;;;5.70;68.43;99182.78;10295345;28;20050;-57
2024/03/02 02:03:13;;;;;;;11.45;5.90;;;;;;;5.66;68.44;99168.13;10296608;28;20054;-57
2024/03/02 02:08:15;;;;;;;9.70;4.85;;;;;;;5.60;67.70;99160.84;10298051;28;20050;-57
2024/03/02 02:13:16;;;;;;;11.57;5.05;;;;;;;5.57;68.19;99156.69;10329753;28;20042;-57
2024/03/02 02:18:18;;;;;;;9.60;5.22;;;;;;;5.51;67.76;99149.34;10317710;28;20052;-57
2024/03/02 02:23:20;;;;;;;8.50;4.60;;;;;;;5.31;68.25;99155.13;10339200;28;20050;-57
2024/03/02 02:28:21;;;;;;;8.73;4.43;;;;;;;5.33;68.08;99149.59;10335162;28;20043;-57
2024/03/02 02:33:22;;;;;;;8.18;4.68;;;;;;;5.29;68.42;99149.13;10334625;28;20056;-57
2024/03/02 02:38:24;;;;;;;9.48;4.93;;;;;;;5.15;68.41;99155.16;10337845;28;20065;-57
2024/03/02 02:43:25;;;;;;;10.25;4.93;;;;;;;5.13;69.00;99159.81;10338069;28;20046;-58
2024/03/02 02:48:27;;;;;;;10.50;4.88;;;;;;;5.11;68.36;99146.66;10334761;28;20045;-57
2024/03/02 02:53:28;;;;;;;6.63;3.83;;;;;;;5.13;68.54;99149.16;10338601;28;20052;-57
2024/03/02 02:58:30;;;;;;;12.20;5.22;;;;;;;5.04;68.88;99152.88;10339797;28;20039;-55
2024/03/02 03:03:31;;;;;;;10.95;4.95;;;;;;;5.02;68.71;99138.88;10337445;28;20049;-56
2024/03/02 03:08:33;;;;;;;10.95;4.30;;;;;;;4.99;68.35;99134.72;10344363;28;20050;-56
2024/03/02 03:13:34;;;;;;;8.50;4.00;;;;;;;4.97;68.56;99134.06;10317793;28;20064;-55
2024/03/02 03:18:36;;;;;;;12.60;5.30;;;;;;;4.86;68.86;99137.06;10339572;28;20130;-55
2024/03/02 03:23:37;;;;;;;8.52;3.85;;;;;;;4.77;68.89;99129.09;10340791;28;20058;-56
2024/03/02 03:28:39;;;;;;;14.40;5.20;;;;;;;4.68;69.21;99130.13;10326767;28;20513;-55
2024/03/02 03:33:40;;;;;;;9.02;4.80;;;;;;;4.63;69.13;99129.78;10336067;28;20497;-56
2024/03/02 03:38:42;;;;;;;8.95;4.60;;;;;;;4.74;69.26;99128.63;10337551;28;20050;-56
2024/03/02 03:43:43;;;;;;;6.10;4.13;;;;;;;4.72;69.08;99122.59;10349463;28;20056;-56
2024/03/02 03:48:45;;;;;;;9.77;4.75;;;;;;;4.65;69.45;99126.97;10345774;28;20062;-55
2024/03/02 03:53:46;;;;;;;9.32;5.18;;;;;;;4.59;69.13;99125.81;10346025;28;20757;-56
2024/03/02 03:58:47;;;;;;;8.85;4.78;;;;;;;4.61;69.04;99139.78;10342405;28;20401;-55
2024/03/02 04:03:49;;;;;;;12.02;6.13;;;;;;;4.58;69.30;99148.06;10345520;28;20050;-55
2024/03/02 04:08:50;;;;;;;15.05;5.35;;;;;;;4.67;69.22;99138.28;10344827;28;20765;-57
2024/03/02 04:13:52;;;;;;;11.90;5.15;;;;;;;4.62;69.29;99137.94;10344233;28;20374;-58
2024/03/02 04:18:57;;;;;;;11.07;5.03;;;;;;;4.59;69.20;99136.44;10347883;28;20053;-57
2024/03/02 04:23:59;;;;;;;15.35;5.88;;;;;;;4.52;69.53;99133.63;10344733;28;20109;-57
2024/03/02 04:29:01;;;;;;;12.25;6.10;;;;;;;4.66;69.11;99133.94;10342288;28;20038;-57
2024/03/02 04:34:03;;;;;;;13.80;6.53;;;;;;;4.63;69.17;99136.94;10340289;28;20055;-57
2024/03/02 04:39:04;;;;;;;14.13;6.65;;;;;;;4.56;69.75;99142.09;10330112;28;20473;-57
2024/03/02 04:44:07;;;;;;;15.13;6.88;;;;;;;4.49;70.18;99147.25;10342918;28;20397;-57
2024/03/02 04:49:09;;;;;;;13.93;7.90;;;;;;;4.62;70.05;99146.78;10339019;28;20050;-56
2024/03/02 04:54:11;;;;;;;16.48;6.93;;;;;;;4.68;69.36;99139.91;10344792;28;20046;-58
2024/03/02 04:59:12;;;;;;;20.45;8.60;;;;;;;4.63;69.81;99137.78;10339463;28;20068;-57
2024/03/02 05:04:14;;;;;;;16.48;8.13;;;;;;;4.67;70.28;99148.91;10345656;28;20089;-57
2024/03/02 05:09:15;;;;;;;16.73;8.38;;;;;;;4.62;69.74;99165.41;10339684;28;20046;-57
2024/03/02 05:14:17;;;;;;;19.88;9.93;;;;;;;4.60;69.48;99155.91;10342544;28;20054;-57
2024/03/02 05:19:18;;;;;;;18.50;9.30;;;;;;;4.65;69.71;99145.59;10339574;28;20866;-58
2024/03/02 05:24:19;;;;;;;20.63;9.20;;;;;;;4.59;69.77;99152.41;10339566;28;20050;-57
2024/03/02 05:29:21;;;;;;;17.98;9.23;;;;;;;4.48;69.80;99158.91;10339295;28;20116;-58
2024/03/02 05:34:22;;;;;;;20.58;9.18;;;;;;;4.50;69.93;99170.22;10337137;28;20057;-57
2024/03/02 05:39:24;;;;;;;24.27;8.10;;;;;;;4.53;69.70;99177.03;10335523;28;20496;-57
2024/03/02 05:44:25;;;;;;;21.25;9.43;;;;;;;4.48;69.57;99174.88;10337366;28;20054;-58
2024/03/02 05:49:27;;;;;;;21.60;9.27;;;;;;;4.46;69.53;99181.34;10336595;28;20046;-57
2024/03/02 05:54:28;;;;;;;22.83;9.32;;;;;;;4.43;69.74;99187.84;10334220;28;20042;-57
2024/03/02 05:59:30;;;;;;;22.70;10.23;;;;;;;4.44;70.04;99186.00;10338846;28;20101;-58
2024/03/02 06:04:31;;;;;;;34.10;10.85;;;;;;;4.55;70.07;99180.38;10336491;28;20049;-60
2024/03/02 06:09:32;;;;;;;26.85;9.98;;;;;;;4.65;69.67;99201.50;10338155;28;20701;-59
2024/03/02 06:14:34;;;;;;;27.15;10.55;;;;;;;4.81;69.81;99195.31;10337918;28;20085;-60
2024/03/02 06:19:35;;;;;;;23.58;10.57;;;;;;;5.08;69.94;99196.81;10337635;28;20057;-59
2024/03/02 06:24:37;;;;;;;24.73;10.57;;;;;;;5.23;69.30;99194.25;10337921;28;20057;-59
2024/03/02 06:29:39;;;;;;;27.33;11.57;;;;;;;5.44;69.81;99199.03;10347823;28;20046;-59
2024/03/02 06:34:40;;;;;;;23.95;10.70;;;;;;;5.50;70.05;99204.50;10350382;28;20069;-59
2024/03/02 06:39:42;;;;;;;22.38;11.40;;;;;;;5.57;70.34;99207.34;10347668;28;20062;-59
2024/03/02 06:44:43;;;;;;;20.77;10.00;;;;;;;5.71;69.32;99203.13;10348180;28;20065;-59
2024/03/02 06:49:44;;;;;;;26.45;10.93;;;;;;;5.87;69.58;99205.69;10346053;28;20062;-59
2024/03/02 06:54:46;;;;;;;24.90;11.70;;;;;;;6.03;69.14;99202.16;10352465;28;20049;-60
2024/03/02 06:59:50;;;;;;;25.98;12.75;;;;;;;6.20;69.14;99207.38;10348721;28;20050;-59
2024/03/02 07:04:53;;;;;;;26.40;11.52;;;;;;;6.39;69.51;99198.91;10328028;28;20046;-59
2024/03/02 07:09:54;;;;;;;23.27;10.63;;;;;;;6.50;69.17;99213.72;10342012;28;20043;-60
2024/03/02 07:20:06;;;;;;;23.42;11.15;;;;;;;6.28;69.36;99213.53;10346447;28;20084;-60
2024/03/02 07:25:08;;;;;;;23.23;10.75;;;;;;;6.21;70.46;99217.88;10344064;28;20046;-60
2024/03/02 07:30:29;;;;;;;29.52;12.98;;;;;;;6.04;70.37;99218.97;10341608;28;20192;-59
2024/03/02 07:35:34;;;;;;;29.48;13.65;;;;;;;6.04;70.13;99221.66;10341557;28;20113;-67
2024/03/02 07:40:36;;;;;;;28.63;13.95;;;;;;;6.08;70.16;99231.81;10341620;28;20046;-63
2024/03/02 07:45:37;;;;;;;33.67;14.48;;;;;;;6.08;70.49;99237.16;10345653;28;20132;-63
2024/03/02 07:50:39;;;;;;;30.73;13.55;;;;;;;6.10;70.00;99231.63;10344399;28;20125;-62
2024/03/02 07:55:40;;;;;;;35.40;14.50;;;;;;;6.24;70.48;99240.72;10344410;28;20050;-63
2024/03/02 08:00:41;;;;;;;40.03;16.05;;;;;;;6.40;70.62;99243.31;10342200;28;20086;-63
2024/03/02 08:05:44;;;;;;;37.50;16.42;;;;;;;6.69;70.11;99244.41;10342913;28;20049;-62
2024/03/02 08:10:46;;;;;;;32.38;14.93;;;;;;;7.08;70.21;99238.94;10335602;28;20355;-63
2024/03/02 08:15:47;;;;;;;28.70;13.77;;;;;;;7.30;69.65;99244.41;10336354;28;20112;-63
2024/03/02 08:20:49;;;;;;;29.65;14.70;;;;;;;7.45;70.20;99249.78;10338090;28;20062;-62
2024/03/02 08:25:50;;;;;;;24.95;12.48;;;;;;;7.77;70.53;99248.59;10331318;28;20046;-64
2024/03/02 08:30:52;;;;;;;26.83;12.30;;;;;;;8.18;70.50;99229.34;10339865;28;20056;-63
2024/03/02 08:35:53;;;;;;;23.98;12.82;;;;;;;8.74;69.29;99234.06;10338649;28;20555;-64
2024/03/02 08:40:55;;;;;;;22.05;10.90;;;;;;;9.20;68.67;99236.34;10337996;28;20065;-62
2024/03/02 08:45:56;;;;;;;23.42;10.68;;;;;;;9.50;68.57;99244.19;10334458;28;20145;-59
2024/03/02 08:50:57;;;;;;;18.17;10.15;;;;;;;9.66;68.17;99243.03;10336068;28;20149;-59
2024/03/02 08:55:59;;;;;;;19.27;10.40;;;;;;;9.77;68.45;99252.38;10336537;28;20046;-59
2024/03/02 09:01:03;;;;;;;20.13;9.05;;;;;;;10.10;67.66;99248.00;10338173;28;20054;-59
2024/03/02 09:06:05;;;;;;;16.27;8.90;;;;;;;10.51;66.86;99244.44;10342268;28;20049;-59
2024/03/02 09:11:06;;;;;;;14.88;8.85;;;;;;;10.89;65.87;99235.81;10326062;28;20158;-59
2024/03/02 09:16:10;;;;;;;17.25;9.02;;;;;;;11.32;65.02;99240.78;10340576;28;20050;-59
2024/03/02 09:21:12;;;;;;;17.90;8.85;;;;;;;11.70;64.28;99242.78;10339995;28;20049;-60
2024/03/02 09:26:14;;;;;;;13.45;8.23;;;;;;;12.07;63.58;99242.31;10339510;28;20634;-59
2024/03/02 09:31:15;;;;;;;17.90;9.20;;;;;;;12.28;63.18;99223.16;10336342;28;20050;-60
2024/03/02 09:36:18;;;;;;;17.60;9.38;;;;;;;12.64;62.38;99212.78;10337850;28;20050;-59
2024/03/02 09:41:20;;;;;;;15.60;9.27;;;;;;;13.02;61.64;99215.41;10340843;28;20057;-59
2024/03/02 09:46:21;;;;;;;16.98;8.32;;;;;;;13.31;61.10;99223.06;10338426;28;20039;-59
2024/03/02 09:51:23;;;;;;;15.55;9.10;;;;;;;13.57;60.37;99217.44;10334696;28;20069;-59
2024/03/02 09:56:24;;;;;;;13.35;8.43;;;;;;;13.87;59.58;99214.00;10339999;28;20044;-64
2024/03/02 10:01:26;;;;;;;14.45;8.48;;;;;;;13.97;59.23;99218.88;10333211;28;20378;-65
2024/03/02 10:06:28;;;;;;;13.80;8.13;;;;;;;14.17;58.51;99215.91;10341784;28;20050;-65
2024/03/02 10:11:36;;;;;;;12.27;7.53;;;;;;;14.44;57.57;99216.38;10336225;28;20058;-63
2024/03/02 10:16:42;;;;;;;14.43;8.35;;;;;;;14.76;56.74;99211.56;10339879;28;20112;-65
2024/03/02 10:21:45;;;;;;;11.25;7.65;;;;;;;15.11;55.89;99205.41;10337270;28;20108;-64
2024/03/02 10:26:48;;;;;;;13.25;7.00;;;;;;;15.43;55.19;99208.59;10332818;28;20589;-64
2024/03/02 10:31:49;;;;;;;10.15;6.93;;;;;;;15.59;54.57;99211.66;10341645;28;20045;-64
2024/03/02 10:36:51;;;;;;;11.18;6.63;;;;;;;15.78;53.86;99196.94;10340606;28;20500;-63
2024/03/02 10:41:54;;;;;;;15.25;7.40;;;;;;;16.05;53.17;99197.22;10336326;28;20516;-62
2024/03/02 10:46:55;;;;;;;11.73;6.72;;;;;;;16.49;52.28;99179.56;10333298;28;20053;-66
2024/03/02 10:52:00;;;;;;;13.35;6.88;;;;;;;16.56;52.06;99174.84;10345937;28;20054;-65
2024/03/02 10:57:05;;;;;;;15.55;7.55;;;;;;;16.47;52.25;99166.28;10341558;28;20053;-65
2024/03/02 11:02:08;;;;;;;10.98;6.40;;;;;;;16.37;52.36;99174.22;10346651;28;20042;-65
2024/03/02 11:07:11;;;;;;;12.75;6.43;;;;;;;16.20;52.15;99166.03;10348357;28;20829;-60
2024/03/02 11:12:19;;;;;;;9.93;6.10;;;;;;;16.04;51.84;99170.34;10344794;28;20133;-60
2024/03/02 11:17:22;;;;;;;9.15;5.43;;;;;;;16.14;51.53;99162.41;10346241;28;20049;-60
2024/03/02 11:22:23;;;;;;;12.15;6.28;;;;;;;16.19;50.65;99164.38;10347226;28;20062;-60
2024/03/02 11:28:01;;;;;;;8.55;5.00;;;;;;;16.16;50.49;99164.88;10343804;28;20060;-59
2024/03/02 11:33:07;;;;;;;9.90;5.95;;;;;;;16.69;49.20;99155.53;10273481;28;20047;-60
2024/03/02 11:38:11;;;;;;;8.20;5.57;;;;;;;16.62;49.09;99152.16;10343407;28;20966;-60
2024/03/02 11:43:13;;;;;;;9.52;5.90;;;;;;;16.89;48.67;99141.50;10341920;28;20052;-60
2024/03/02 11:48:15;;;;;;;10.32;5.40;;;;;;;17.43;47.36;99132.78;10342986;28;20054;-60
2024/03/02 11:53:18;;;;;;;11.43;6.15;;;;;;;17.46;47.50;99135.00;10343780;28;20054;-60
2024/03/02 11:58:20;;;;;;;8.18;4.68;;;;;;;19.13;44.71;99122.56;10338326;28;20050;-60
2024/03/02 12:03:25;;;;;;;9.45;5.15;;;;;;;20.92;41.16;99105.91;10340754;28;20056;-60
2024/03/02 12:08:26;;;;;;;10.50;5.20;;;;;;;24.23;35.75;99090.25;10337834;28;20046;-60
2024/03/02 12:13:28;;;;;;;7.80;5.07;;;;;;;27.22;31.65;99092.88;10345730;28;20060;-61
2024/03/02 12:18:29;;;;;;;8.60;5.40;;;;;;;29.31;29.34;99097.78;10342003;28;20054;-60
2024/03/02 12:23:31;;;;;;;6.93;4.50;;;;;;;30.28;28.16;99084.16;10338135;28;20070;-60
2024/03/02 12:28:33;;;;;;;7.32;5.05;;;;;;;27.86;30.20;99094.41;10340966;28;20145;-60
2024/03/02 12:33:35;;;;;;;7.82;4.13;;;;;;;25.63;32.95;99082.03;10341074;28;20104;-61
2024/03/02 12:38:37;;;;;;;4.82;3.88;;;;;;;26.50;31.54;99066.31;10338390;28;20050;-61
2024/03/02 12:43:38;;;;;;;7.80;4.10;;;;;;;29.78;26.93;99061.72;10344328;28;20057;-61
2024/03/02 12:48:40;;;;;;;5.38;4.00;;;;;;;31.13;25.48;99057.91;10336127;28;20493;-61
2024/03/02 12:53:42;;;;;;;5.72;3.75;;;;;;;32.46;23.57;99054.47;10340662;28;20077;-61
2024/03/02 12:58:44;;;;;;;5.18;3.92;;;;;;;34.10;21.46;99033.84;10339973;28;20038;-61
2024/03/02 13:03:48;;;;;;;5.50;3.72;;;;;;;36.10;20.09;99033.72;10336547;28;20775;-61
2024/03/02 13:08:50;;;;;;;4.95;4.22;;;;;;;37.27;18.63;99035.38;10337977;28;20058;-61
2024/03/02 13:13:51;;;;;;;5.47;4.65;;;;;;;37.76;18.33;99036.13;10288983;28;20066;-61
2024/03/02 13:18:53;;;;;;;4.68;3.50;;;;;;;37.59;18.15;99026.41;10296720;28;20047;-62
2024/03/02 13:23:54;;;;;;;4.38;3.25;;;;;;;38.28;17.43;99024.75;10301809;28;20054;-61
2024/03/02 13:28:56;;;;;;;5.13;3.38;;;;;;;37.44;18.01;99033.09;10298881;28;20054;-63
2024/03/02 13:33:57;;;;;;;5.78;4.00;;;;;;;38.17;16.75;99009.88;10298466;28;20047;-63
2024/03/02 13:38:59;;;;;;;4.22;2.45;;;;;;;38.88;16.49;99009.25;10296450;28;20707;-63
2024/03/02 13:44:01;;;;;;;2.55;1.92;;;;;;;39.32;15.77;99005.25;10298803;28;20080;-63
2024/03/02 13:49:02;;;;;;;1.70;1.40;;;;;;;39.12;15.82;99002.03;10300080;28;20495;-63
2024/03/02 13:54:04;;;;;;;3.50;1.88;;;;;;;39.80;15.11;98987.88;10302355;28;20061;-63
2024/03/02 13:59:07;;;;;;;1.90;1.48;;;;;;;39.74;15.34;98981.06;10297233;28;20046;-64
2024/03/02 14:04:08;;;;;;;1.52;1.40;;;;;;;39.61;15.17;98971.44;10294031;28;20494;-63
2024/03/02 14:09:10;;;;;;;3.45;2.40;;;;;;;39.55;15.21;98968.25;10292903;28;20409;-63
2024/03/02 14:14:11;;;;;;;2.88;1.70;;;;;;;38.82;15.43;98963.88;10289735;28;20098;-64
2024/03/02 14:19:13;;;;;;;5.05;0.90;;;;;;;37.89;16.12;98956.00;10297248;28;20046;-64
2024/03/02 14:24:14;;;;;;;1.30;0.90;;;;;;;37.14;16.08;98943.59;10295575;28;20051;-63
2024/03/02 14:29:16;;;;;;;4.90;0.80;;;;;;;35.90;16.74;98948.31;10301486;28;20497;-63
2024/03/02 14:34:17;;;;;;;2.25;1.27;;;;;;;33.56;19.06;98935.91;10294811;28;20070;-62
2024/03/02 14:39:19;;;;;;;2.53;1.80;;;;;;;32.69;18.97;98932.28;10294019;28;20097;-61
2024/03/02 14:44:21;;;;;;;2.20;1.30;;;;;;;31.90;19.67;98930.13;10295371;28;20070;-64
2024/03/02 14:49:22;;;;;;;2.75;0.95;;;;;;;29.94;21.02;98933.63;10295590;28;20057;-65
2024/03/02 14:54:24;;;;;;;1.02;0.75;;;;;;;27.81;22.47;98931.63;10288440;28;20054;-66
2024/03/02 14:59:25;;;;;;;2.85;0.90;;;;;;;26.51;24.28;98936.47;10290171;28;20047;-67
2024/03/02 15:04:27;;;;;;;3.35;1.30;;;;;;;26.24;24.71;98929.19;10293577;28;20139;-65
2024/03/02 15:09:28;;;;;;;1.45;1.08;;;;;;;25.65;25.58;98914.66;10297621;28;20410;-68
2024/03/02 15:14:30;;;;;;;2.35;1.35;;;;;;;24.27;26.78;98916.34;10296992;28;20730;-68
2024/03/02 15:19:32;;;;;;;2.72;1.15;;;;;;;22.94;28.20;98919.09;10296279;28;20066;-64
2024/03/02 15:24:33;;;;;;;2.70;1.42;;;;;;;21.98;29.57;98913.50;10294268;28;20061;-66
2024/03/02 15:29:35;;;;;;;3.25;1.20;;;;;;;21.31;30.14;98907.66;10296226;28;20050;-67
2024/03/02 15:34:37;;;;;;;5.20;1.30;;;;;;;20.76;31.19;98911.19;10289757;28;20352;-68
2024/03/02 15:39:39;;;;;;;20.98;9.75;;;;;;;20.53;31.59;98911.78;10300092;28;20114;-68
2024/03/02 15:44:41;;;;;;;10.48;6.18;;;;;;;20.95;31.27;98902.38;10302837;28;20572;-65
2024/03/02 15:49:45;;;;;;;4.97;2.65;;;;;;;20.77;32.09;98901.91;10301382;28;20614;-65
2024/03/02 15:54:50;;;;;;;3.42;1.70;;;;;;;20.78;32.43;98898.06;10298780;28;20047;-64
2024/03/02 15:59:51;;;;;;;4.80;1.30;;;;;;;21.07;31.89;98886.50;10292721;28;20051;-65
2024/03/02 16:04:53;;;;;;;2.53;0.90;;;;;;;20.94;32.74;98892.56;10301006;28;20074;-68
2024/03/02 16:09:54;;;;;;;1.50;1.00;;;;;;;20.57;33.34;98893.75;10301175;28;20054;-65
2024/03/02 16:14:56;;;;;;;2.65;1.30;;;;;;;20.12;34.02;98890.03;10300527;28;20225;-64
2024/03/02 16:19:58;;;;;;;3.05;1.10;;;;;;;19.65;34.67;98886.47;10302351;28;20054;-61
2024/03/02 16:24:59;;;;;;;3.28;0.80;;;;;;;19.15;35.69;98886.09;10304075;28;20844;-62
2024/03/02 16:30:02;;;;;;;3.67;1.80;;;;;;;18.73;36.57;98888.94;10298061;28;20120;-65
2024/03/02 16:35:05;;;;;;;9.40;3.28;;;;;;;18.29;37.44;98889.25;10300904;28;20501;-63
2024/03/02 16:40:08;;;;;;;9.77;5.28;;;;;;;17.84;38.27;98892.19;10297690;28;20182;-63
2024/03/02 16:45:09;;;;;;;7.53;4.05;;;;;;;17.42;39.41;98892.09;10305028;28;20061;-66
2024/03/02 16:50:11;;;;;;;6.93;2.22;;;;;;;17.01;40.51;98900.59;10305757;28;20051;-64
2024/03/02 16:55:14;;;;;;;3.35;1.75;;;;;;;16.68;41.29;98893.38;10284412;28;20102;-64
2024/03/02 17:00:16;;;;;;;5.45;1.75;;;;;;;16.33;42.01;98908.13;10302571;28;20073;-56
2024/03/02 17:05:21;;;;;;;3.85;1.88;;;;;;;16.00;42.71;98911.69;10283478;28;20057;-57
2024/03/02 17:10:22;;;;;;;3.75;1.98;;;;;;;15.65;43.74;98910.00;10282638;28;20577;-58
2024/03/02 17:15:24;;;;;;;3.22;1.60;;;;;;;15.37;43.96;98908.97;10288288;28;20068;-58
2024/03/02 17:20:25;;;;;;;2.75;1.50;;;;;;;15.10;44.20;98922.25;10298909;28;20056;-57
2024/03/02 17:25:27;;;;;;;4.57;2.05;;;;;;;14.87;44.76;98917.75;10304744;28;20057;-58
2024/03/02 17:30:28;;;;;;;2.88;1.80;;;;;;;14.63;45.23;98912.41;10301082;28;20048;-55
2024/03/02 17:35:31;;;;;;;5.95;2.78;;;;;;;14.36;45.86;98917.44;10293975;28;20513;-56
2024/03/02 17:40:32;;;;;;;4.95;2.58;;;;;;;14.13;46.75;98922.84;10283733;28;20058;-55
2024/03/02 17:45:34;;;;;;;7.75;3.15;;;;;;;13.89;46.89;98923.66;10280611;28;20058;-54
2024/03/02 17:50:36;;;;;;;12.00;4.85;;;;;;;13.67;47.40;98934.19;10290260;28;20135;-56
2024/03/02 17:55:37;;;;;;;8.70;4.00;;;;;;;13.47;48.28;98926.38;10297313;28;20082;-56
2024/03/02 18:00:40;;;;;;;6.50;3.63;;;;;;;13.28;48.55;98920.16;10305156;28;20145;-55
2024/03/02 18:05:42;;;;;;;7.70;3.22;;;;;;;13.10;49.32;98926.44;10297783;28;20564;-58
2024/03/02 18:10:43;;;;;;;5.57;3.17;;;;;;;12.98;49.38;98924.75;10305423;28;20081;-55
2024/03/02 18:15:45;;;;;;;7.15;3.17;;;;;;;12.84;49.65;98921.41;10336010;28;20462;-54
2024/03/02 18:20:50;;;;;;;5.82;3.38;;;;;;;12.71;49.99;98922.34;10338595;28;20054;-56
2024/03/02 18:25:52;;;;;;;6.95;3.20;;;;;;;12.61;50.80;98919.38;10336213;28;20046;-55
2024/03/02 18:30:53;;;;;;;5.00;3.03;;;;;;;12.53;51.01;98912.41;10321917;28;20093;-55
2024/03/02 18:35:55;;;;;;;7.35;2.88;;;;;;;12.52;50.93;98908.06;10320599;28;20133;-57
2024/03/02 18:40:57;;;;;;;5.25;2.40;;;;;;;12.53;50.94;98912.41;10338350;28;20061;-55
2024/03/02 18:45:59;;;;;;;5.13;3.10;;;;;;;12.53;51.65;98908.88;10336625;28;20050;-55
2024/03/02 18:51:10;;;;;;;6.30;2.50;;;;;;;12.49;51.94;98906.63;10339762;28;20058;-55
2024/03/02 18:56:11;;;;;;;4.00;2.60;;;;;;;12.53;52.49;98898.94;10330188;28;20125;-55
2024/03/02 19:01:14;;;;;;;4.82;2.85;;;;;;;12.55;52.34;98904.09;10338286;28;20058;-55
2024/03/02 19:06:16;;;;;;;5.35;3.35;;;;;;;12.53;52.53;98906.19;10342092;28;20050;-56
2024/03/02 19:11:20;;;;;;;4.97;2.22;;;;;;;12.55;52.88;98906.78;10346240;28;20524;-57
2024/03/02 19:16:23;;;;;;;10.50;4.93;;;;;;;12.54;53.34;98916.75;10326983;28;20047;-58
2024/03/02 19:21:24;;;;;;;6.78;3.55;;;;;;;12.55;53.47;98909.50;10317201;28;20038;-58
2024/03/02 19:26:26;;;;;;;4.95;3.25;;;;;;;12.54;53.64;98905.97;10331146;28;20129;-58
2024/03/02 19:31:27;;;;;;;10.20;5.57;;;;;;;12.54;53.90;98894.34;10346599;28;20046;-58
2024/03/02 19:36:29;;;;;;;4.78;3.10;;;;;;;12.57;54.13;98888.53;10344868;28;20058;-59
2024/03/02 19:41:30;;;;;;;4.72;3.05;;;;;;;12.55;53.79;98887.94;10324670;28;20049;-58
2024/03/02 19:46:32;;;;;;;7.28;4.40;;;;;;;12.48;53.96;98893.41;10343834;28;20054;-59
2024/03/02 19:51:33;;;;;;;8.85;4.68;;;;;;;12.40;54.26;98891.81;10341736;28;20063;-58
2024/03/02 19:56:35;;;;;;;5.82;3.40;;;;;;;12.24;54.78;98898.63;10331986;28;20058;-58
2024/03/02 20:01:37;;;;;;;5.63;3.05;;;;;;;12.03;55.57;98893.66;10344538;28;20502;-58
2024/03/02 20:06:39;;;;;;;9.98;4.53;;;;;;;11.85;56.14;98891.72;10340179;28;20486;-58
2024/03/02 20:11:41;;;;;;;11.40;4.63;;;;;;;11.80;56.68;98896.91;10342396;28;20141;-58
2024/03/02 20:16:44;;;;;;;10.48;4.40;;;;;;;11.78;56.33;98889.06;10342372;28;20100;-57
2024/03/02 20:21:45;;;;;;;10.25;4.72;;;;;;;11.70;56.36;98905.47;10340500;28;20042;-59
2024/03/02 20:26:47;;;;;;;7.10;4.28;;;;;;;11.64;55.93;98915.25;10343951;28;20078;-57
2024/03/02 20:31:48;;;;;;;9.52;5.50;;;;;;;11.50;56.69;98913.69;10325169;28;20052;-58
2024/03/02 20:36:50;;;;;;;10.70;4.68;;;;;;;11.38;56.48;98918.97;10343160;28;20058;-58
2024/03/02 20:41:51;;;;;;;16.00;7.45;;;;;;;11.18;56.57;98918.25;10345819;28;20050;-57
2024/03/02 20:46:53;;;;;;;10.82;4.95;;;;;;;10.87;57.57;98915.28;10343716;28;20134;-58
2024/03/02 20:51:54;;;;;;;8.77;4.90;;;;;;;10.65;58.11;98911.25;10321396;28;20049;-58
2024/03/02 20:56:57;;;;;;;10.95;5.20;;;;;;;10.65;58.02;98922.81;10335623;28;20557;-58
2024/03/02 21:01:59;;;;;;;11.15;6.75;;;;;;;10.57;58.40;98919.53;10336757;28;20472;-58
2024/03/02 21:07:02;;;;;;;11.20;6.53;;;;;;;10.43;58.79;98922.25;10338861;28;20062;-58
2024/03/02 21:12:05;;;;;;;12.90;7.03;;;;;;;10.43;58.83;98914.19;10341448;28;20057;-58
2024/03/02 21:17:07;;;;;;;11.05;6.05;;;;;;;10.15;59.03;98916.28;10335186;28;20053;-58
2024/03/02 21:22:08;;;;;;;12.70;6.65;;;;;;;9.98;59.64;98918.59;10322214;28;20137;-58
2024/03/02 21:27:11;;;;;;;15.32;6.80;;;;;;;9.89;59.44;98907.22;10340096;28;20065;-58
2024/03/02 21:32:12;;;;;;;14.27;7.05;;;;;;;9.75;59.90;98911.75;10321690;28;20060;-58
2024/03/02 21:37:14;;;;;;;12.65;6.05;;;;;;;9.68;59.85;98902.91;10340056;28;20137;-58
2024/03/02 21:42:15;;;;;;;12.07;6.32;;;;;;;9.55;60.25;98903.69;10321096;28;20057;-57
2024/03/02 21:47:18;;;;;;;13.82;6.20;;;;;;;9.55;60.74;98895.66;10334182;28;20096;-55
2024/03/02 21:52:20;;;;;;;18.88;9.10;;;;;;;9.44;60.63;98899.78;10335358;28;20062;-58
2024/03/02 21:57:21;;;;;;;18.95;11.00;;;;;;;9.37;60.82;98895.44;10337412;28;20050;-58
2024/03/02 22:02:23;;;;;;;19.13;8.88;;;;;;;9.28;60.63;98886.75;10339457;28;20054;-56
2024/03/02 22:07:25;;;;;;;14.63;7.40;;;;;;;9.09;61.32;98894.56;10316680;28;20885;-59
2024/03/02 22:12:26;;;;;;;12.77;6.78;;;;;;;9.02;61.59;98891.03;10336589;28;20738;-59
2024/03/02 22:17:28;;;;;;;15.05;7.32;;;;;;;9.07;61.54;98887.75;10338951;28;20065;-57
2024/03/02 22:22:30;;;;;;;33.92;12.18;;;;;;;9.05;61.21;98885.28;10334542;28;20136;-58
2024/03/02 22:27:33;;;;;;;22.52;10.40;;;;;;;8.97;61.43;98884.63;10334551;28;20145;-56
2024/03/02 22:32:34;;;;;;;19.08;9.23;;;;;;;8.80;61.84;98893.00;10337882;28;20053;-56
2024/03/02 22:37:35;;;;;;;16.65;7.75;;;;;;;8.73;62.14;98889.50;10334261;28;20400;-57
2024/03/02 22:42:37;;;;;;;14.52;7.57;;;;;;;8.72;62.06;98895.88;10337693;28;20090;-57
2024/03/02 22:47:39;;;;;;;18.75;8.65;;;;;;;8.68;62.49;98913.38;10342312;28;20197;-58
2024/03/02 22:52:40;;;;;;;14.40;8.20;;;;;;;8.63;62.32;98905.09;10339166;28;20051;-58
2024/03/02 22:57:41;;;;;;;15.15;8.10;;;;;;;8.49;62.68;98912.25;10347034;28;20065;-58
2024/03/02 23:02:43;;;;;;;14.70;7.80;;;;;;;8.44;62.52;98915.53;10343188;28;20042;-58
2024/03/02 23:07:44;;;;;;;15.95;8.35;;;;;;;8.33;62.58;98902.66;10346470;28;20056;-57
2024/03/02 23:12:46;;;;;;;14.70;7.63;;;;;;;8.25;63.29;98902.81;10342259;28;20092;-58
2024/03/02 23:17:47;;;;;;;17.63;8.80;;;;;;;8.23;62.42;98896.84;10342567;28;20116;-57
2024/03/02 23:22:49;;;;;;;15.90;7.90;;;;;;;8.02;63.15;98901.25;10344710;28;20058;-58
2024/03/02 23:27:50;;;;;;;17.00;8.35;;;;;;;8.02;63.33;98897.75;10341017;28;20054;-59